Terminal Aerodrome Forecast
Issued by NWS Mobile, AL

Home | Current Version | Previous Version | Text Only | Print | Product List | Glossary On
Versions: 1 2 3 4 5 6 7 8 9 10 11 12 13 14 15 16 17 18 19 20 21 22 23 24 25 26 27 28 29 30 31 32 33 34 35 36 37 38 39 40 41 42 43 44
000
FTUS44 KMOB 291138
TAFMOB
TAF
KMOB 291138Z 2912/3012 07004KT 3SM BR VCSH SCT003 BKN030
      TEMPO 2912/2913 1/2SM -SHRA FG BKN003
     FM291600 13009KT P6SM VCTS BKN040CB
     FM292100 16009KT P6SM SCT040 SCT200=

USA.gov is the U.S. government's official web portal to all federal, state and local government web resources and services.